This is the latest recevied weather packets stored in our database for station/object SV4JYD-14. If no packets are shown the sender has not sent any weather packets the latest 1 day(s).
| Time | Temp. | Humidity | Pressure | Rain* | Wind** | Luminosity | Snow |
|---|---|---|---|---|---|---|---|
| 1778059927 | 18.33° C | 53% | 1017 hPa | 0 mm | - | - | - |
| 1778059027 | 17.78° C | 53% | 1018 hPa | 0 mm | - | - | - |
| 1778057226 | 17.78° C | 50% | 1017 hPa | 0 mm | - | - | - |
| 1778055425 | 17.22° C | 52% | 1018 hPa | 0 mm | - | - | - |
| 1778054525 | 17.22° C | 54% | 1017 hPa | 0 mm | - | - | - |
| 1778053625 | 17.22° C | 57% | 1017 hPa | 0 mm | - | - | - |
| 1778052724 | 17.78° C | 58% | 1017 hPa | 0 mm | - | - | - |
| 1778051824 | 16.11° C | 61% | 1017 hPa | 0 mm | - | - | - |
| 1778049122 | 16.67° C | 62% | 1017 hPa | 0 mm | - | - | - |
| 1778048222 | 16.11° C | 61% | 1018 hPa | 0 mm | - | - | - |
| 1778046421 | 16.11° C | 62% | 1017 hPa | 0 mm | - | - | - |
| 1778045521 | 16.11° C | 66% | 1017 hPa | 0 mm | - | - | - |
| 1778042820 | 12.78° C | 79% | 1017 hPa | 0 mm | - | - | - |
| 1778041920 | 12.22° C | 80% | 1017 hPa | 0 mm | - | - | - |
| 1778041020 | 11.67° C | 81% | 1017 hPa | 0 mm | - | - | - |
| 1778040119 | 11.11° C | 81% | 1017 hPa | 0 mm | - | - | - |
| 1778039219 | 11.11° C | 81% | 1017 hPa | 0 mm | - | - | - |
| 1778038319 | 11.11° C | 80% | 1017 hPa | 0 mm | - | - | - |
| 1778036518 | 11.11° C | 79% | 1017 hPa | 0 mm | - | - | - |
| 1778035618 | 11.11° C | 79% | 1017 hPa | 0 mm | - | - | - |
| 1778034718 | 11.11° C | 79% | 1017 hPa | 0 mm | - | - | - |
| 1778033818 | 11.11° C | 79% | 1017 hPa | 0 mm | - | - | - |
* Rain latest hour (hover to see other rain measurements)
** Current wind speed in m/s (hover to see current wind gust speed)